LIC weather

Limon Municipal Airport
Limon, Colorado, United States

Public forecast

Using degrees Fahrenheit for public forecast. Weather courtesy of forecast.io.

METAR (pilot weather report)

Retrieved 2019/07/18 01:55 UTC (10 minutes ago):

KLIC 180155Z AUTO 14007KT 10SM CLR 25/11 A2999 RMK AO2 SLP063 T02500106

TAF (pilot weather forecast)

Forecast is more than 12 hours old.

Closest forecast is City of Colorado Springs Municipal Airport, 55.9 nm (103.5 km) WSW. Retrieved 2019/07/17 00:22 UTC (1 day ago):

TAF KCOS 172320Z 1800/1824 13012G22KT P6SM SCT080 BKN150 FM180200 20009KT P6SM SCT100 FM180500 35007KT P6SM SKC FM181900 18012KT P6SM FEW120